Time;durP1;ratioP1;P1;durP2;ratioP2;P2;SDS_P1;SDS_P2;PMS_P1;PMS_P2;Temp;Humidity;BMP_temperature;BMP_pressure;BME280_temperature;BME280_humidity;BME280_pressure;Samples;Min_cycle;Max_cycle;Signal;HPM_P1;HPM_P2
2022/04/30 00:00:59;;;;;;;8.60;5.80;;;;;;;7.56;72.76;101462.75;5098629;28;20493;-68
2022/04/30 00:03:27;;;;;;;10.07;6.33;;;;;;;7.46;73.00;101465.94;5100371;28;20452;-68
2022/04/30 00:05:55;;;;;;;11.97;6.40;;;;;;;7.43;73.22;101466.16;5099415;28;20482;-68
2022/04/30 00:08:22;;;;;;;8.90;5.43;;;;;;;7.41;73.09;101461.84;5099827;28;21127;-66
2022/04/30 00:10:50;;;;;;;12.20;6.10;;;;;;;7.52;73.07;101459.44;5099209;28;20477;-66
2022/04/30 00:13:17;;;;;;;10.27;6.40;;;;;;;7.53;73.09;101458.47;5099360;28;21115;-66
2022/04/30 00:15:45;;;;;;;9.40;6.33;;;;;;;7.40;73.21;101454.84;5098456;28;20467;-66
2022/04/30 00:18:12;;;;;;;9.90;6.70;;;;;;;7.39;73.64;101461.94;5100644;28;20435;-66
2022/04/30 00:20:39;;;;;;;8.63;5.87;;;;;;;7.42;73.79;101452.94;5099504;28;20820;-66
2022/04/30 00:23:19;;;;;;;10.53;6.23;;;;;;;7.20;74.22;101454.19;5100144;28;20478;-66
2022/04/30 00:25:46;;;;;;;9.40;7.10;;;;;;;7.09;74.40;101451.28;5093417;28;20532;-68
2022/04/30 00:28:13;;;;;;;11.10;6.63;;;;;;;7.13;74.67;101443.06;5099597;28;20558;-68
2022/04/30 00:30:43;;;;;;;11.53;6.57;;;;;;;7.20;74.57;101446.19;5098605;28;20496;-66
2022/04/30 00:33:11;;;;;;;11.47;7.07;;;;;;;7.21;74.53;101441.75;5101849;28;20463;-66
2022/04/30 00:35:38;;;;;;;9.90;6.10;;;;;;;7.32;74.24;101436.66;5103696;28;20474;-67
2022/04/30 00:38:05;;;;;;;13.57;6.90;;;;;;;7.00;75.00;101438.53;5112189;28;20452;-67
2022/04/30 00:40:32;;;;;;;11.50;6.43;;;;;;;6.94;75.26;101429.97;5124331;28;20539;-69
2022/04/30 00:42:59;;;;;;;7.13;5.60;;;;;;;7.29;74.68;101431.50;5108869;28;20455;-69
2022/04/30 00:45:25;;;;;;;7.57;5.90;;;;;;;7.19;74.42;101428.53;5102585;28;21075;-70
2022/04/30 00:47:52;;;;;;;7.53;6.03;;;;;;;7.22;74.44;101433.69;5104090;28;20447;-70
2022/04/30 00:50:22;;;;;;;8.20;5.63;;;;;;;7.25;74.43;101435.31;5093045;28;20451;-68
2022/04/30 00:52:49;;;;;;;7.57;6.40;;;;;;;7.26;74.25;101432.56;5104369;28;20447;-68
2022/04/30 00:55:21;;;;;;;10.07;6.17;;;;;;;7.27;74.57;101425.41;5103112;28;20497;-68
2022/04/30 00:57:49;;;;;;;9.57;5.50;;;;;;;7.21;74.62;101425.78;5104130;28;20521;-69
2022/04/30 01:00:17;;;;;;;9.70;6.37;;;;;;;7.20;74.48;101429.38;5103515;28;20451;-69
2022/04/30 01:02:44;;;;;;;10.50;5.80;;;;;;;7.16;74.68;101420.75;5103158;28;20459;-70
2022/04/30 01:05:11;;;;;;;9.87;6.40;;;;;;;7.16;74.75;101426.06;5103396;28;20614;-69
2022/04/30 01:07:40;;;;;;;11.63;6.27;;;;;;;7.06;74.86;101419.56;5104124;28;20428;-68
2022/04/30 01:10:08;;;;;;;8.17;6.70;;;;;;;7.09;75.12;101424.72;5102948;28;20467;-68
2022/04/30 01:12:35;;;;;;;9.47;6.13;;;;;;;7.11;75.04;101423.66;5103268;28;20511;-68
2022/04/30 01:15:04;;;;;;;8.47;6.10;;;;;;;7.06;75.21;101427.53;5103331;28;20492;-68
2022/04/30 01:17:31;;;;;;;11.60;5.90;;;;;;;7.03;74.98;101420.59;5102219;28;20474;-69
2022/04/30 01:19:58;;;;;;;8.63;6.03;;;;;;;7.07;75.16;101423.94;5102933;28;20440;-69
2022/04/30 01:22:27;;;;;;;10.30;6.97;;;;;;;7.02;75.09;101418.88;5103613;28;20486;-69
2022/04/30 01:24:56;;;;;;;11.17;5.73;;;;;;;6.98;75.34;101406.72;5102802;28;20494;-68
2022/04/30 01:27:25;;;;;;;9.57;5.90;;;;;;;6.88;75.48;101413.50;5103005;28;20505;-68
2022/04/30 01:29:52;;;;;;;10.33;5.60;;;;;;;6.89;75.76;101407.22;5102889;28;20450;-68
2022/04/30 01:37:58;;;;;;;8.33;6.60;;;;;;;6.77;76.37;101400.81;5103880;28;20442;-68
2022/04/30 01:40:26;;;;;;;9.23;6.50;;;;;;;6.71;76.43;101396.72;5102175;28;20474;-68
2022/04/30 01:42:55;;;;;;;10.73;6.23;;;;;;;6.63;76.60;101396.31;5102115;28;20447;-69
2022/04/30 01:45:22;;;;;;;13.60;7.33;;;;;;;6.64;76.61;101395.34;5101458;28;20530;-69
2022/04/30 01:47:49;;;;;;;12.10;6.73;;;;;;;6.57;76.90;101401.97;5102265;28;20496;-68
2022/04/30 01:50:15;;;;;;;12.77;7.30;;;;;;;6.63;76.91;101393.66;5102272;28;20512;-68
2022/04/30 01:52:42;;;;;;;12.27;6.83;;;;;;;6.64;76.87;101400.66;5102906;28;20449;-68
2022/04/30 01:55:10;;;;;;;12.47;6.70;;;;;;;6.73;76.37;101389.50;5102250;28;20473;-67
2022/04/30 01:57:40;;;;;;;13.90;6.37;;;;;;;6.67;76.58;101391.69;5103057;28;20447;-67
2022/04/30 02:00:08;;;;;;;15.60;6.83;;;;;;;6.72;76.46;101398.44;5102110;28;20474;-68
2022/04/30 02:02:36;;;;;;;13.00;6.93;;;;;;;6.73;76.26;101394.81;5102536;28;20461;-68
2022/04/30 02:05:05;;;;;;;9.70;6.43;;;;;;;6.73;76.58;101394.81;5102696;28;20514;-68
2022/04/30 02:07:33;;;;;;;13.57;6.90;;;;;;;6.68;76.51;101396.03;5102490;28;20535;-67
2022/04/30 02:10:00;;;;;;;12.20;8.20;;;;;;;6.57;77.10;101386.03;5101139;28;20505;-68
2022/04/30 02:12:29;;;;;;;10.50;7.20;;;;;;;6.64;76.95;101392.69;5101937;28;20983;-69
2022/04/30 02:14:57;;;;;;;13.17;7.60;;;;;;;6.32;77.99;101383.88;5101834;28;20467;-69
2022/04/30 02:17:26;;;;;;;11.90;7.30;;;;;;;6.49;77.86;101385.59;5102608;28;20486;-69
2022/04/30 02:22:39;;;;;;;11.73;7.20;;;;;;;6.35;78.02;101379.28;5101947;28;20481;-69
2022/04/30 02:25:09;;;;;;;10.10;7.03;;;;;;;6.54;77.68;101373.75;5101335;28;20487;-69
2022/04/30 02:27:37;;;;;;;14.57;8.00;;;;;;;6.70;77.06;101375.53;5087556;28;20450;-66
2022/04/30 02:30:07;;;;;;;9.17;7.50;;;;;;;6.57;77.44;101378.91;5101725;28;20506;-66
2022/04/30 02:32:39;;;;;;;11.70;7.43;;;;;;;6.43;78.09;101372.66;5101347;28;20451;-68
2022/04/30 02:35:07;;;;;;;10.03;7.23;;;;;;;6.48;78.17;101365.28;5101757;28;20439;-67
2022/04/30 02:37:35;;;;;;;11.30;7.57;;;;;;;6.34;77.97;101368.72;5100531;28;20497;-67
2022/04/30 02:40:02;;;;;;;14.17;8.20;;;;;;;6.44;77.99;101361.06;5101057;28;20459;-66
2022/04/30 02:42:28;;;;;;;9.67;7.97;;;;;;;6.47;78.16;101364.41;5085726;28;20474;-67
2022/04/30 02:44:55;;;;;;;11.47;7.40;;;;;;;6.48;78.05;101362.63;5100984;28;20554;-67
2022/04/30 02:47:23;;;;;;;13.20;8.97;;;;;;;6.62;77.78;101361.84;5100268;28;20487;-67
2022/04/30 02:49:50;;;;;;;11.00;7.40;;;;;;;6.66;77.43;101361.56;5100962;28;20512;-67
2022/04/30 02:52:16;;;;;;;14.83;7.80;;;;;;;6.63;77.42;101355.56;5101202;28;20493;-67
2022/04/30 02:54:43;;;;;;;10.20;7.93;;;;;;;6.53;77.92;101358.78;5101193;28;21542;-67
2022/04/30 02:57:10;;;;;;;10.00;7.70;;;;;;;6.52;78.08;101359.69;5101453;28;20542;-67
2022/04/30 02:59:53;;;;;;;12.67;7.40;;;;;;;6.59;78.11;101350.44;5101692;28;20446;-68
2022/04/30 03:02:20;;;;;;;13.03;8.83;;;;;;;6.60;78.05;101349.50;5100298;28;20485;-68
2022/04/30 03:04:51;;;;;;;16.97;8.23;;;;;;;6.66;77.93;101342.97;5101260;28;20542;-68
2022/04/30 03:07:18;;;;;;;10.70;7.07;;;;;;;6.62;78.25;101352.06;5101027;28;21018;-68
2022/04/30 03:09:47;;;;;;;10.23;8.20;;;;;;;6.69;78.13;101349.94;5101177;28;20439;-67
2022/04/30 03:12:14;;;;;;;12.87;8.57;;;;;;;6.75;77.64;101342.47;5100736;28;20533;-67
2022/04/30 03:14:41;;;;;;;9.93;7.40;;;;;;;6.69;77.75;101348.13;5100799;28;20512;-67
2022/04/30 03:22:39;;;;;;;10.43;8.47;;;;;;;6.57;78.23;101343.50;5101083;28;20470;-69
2022/04/30 03:25:06;;;;;;;12.23;8.90;;;;;;;6.63;78.17;101331.66;5101731;28;20479;-69
2022/04/30 03:27:34;;;;;;;11.70;8.60;;;;;;;6.47;78.86;101331.69;5100987;28;20469;-69
2022/04/30 03:30:00;;;;;;;11.93;8.50;;;;;;;6.59;78.84;101328.31;5101222;28;20462;-68
2022/04/30 03:32:27;;;;;;;16.10;9.30;;;;;;;6.80;78.21;101334.19;5099551;28;20483;-68
2022/04/30 03:34:55;;;;;;;12.63;7.70;;;;;;;6.79;77.77;101332.50;5100833;28;20467;-67
2022/04/30 03:37:22;;;;;;;10.97;8.10;;;;;;;6.81;77.94;101327.09;5100259;28;20471;-68
2022/04/30 03:39:49;;;;;;;11.20;8.13;;;;;;;6.68;78.10;101322.47;5100954;28;20447;-67
2022/04/30 03:42:15;;;;;;;12.23;8.10;;;;;;;6.73;78.21;101320.41;5100402;28;20478;-68
2022/04/30 03:44:42;;;;;;;10.13;7.43;;;;;;;6.83;78.16;101328.72;5100327;28;20486;-68
2022/04/30 03:47:09;;;;;;;16.80;7.90;;;;;;;6.83;78.00;101318.06;5099762;28;20511;-68
2022/04/30 03:49:36;;;;;;;13.37;8.30;;;;;;;6.89;78.01;101323.03;5084899;28;20788;-68
2022/04/30 03:52:11;;;;;;;9.67;7.30;;;;;;;6.87;77.76;101324.91;5100509;28;20483;-68
2022/04/30 03:54:39;;;;;;;12.60;8.50;;;;;;;6.84;77.76;101314.47;5100982;28;20455;-68
2022/04/30 03:57:06;;;;;;;13.60;8.27;;;;;;;6.62;78.57;101314.03;5100338;28;20555;-69
2022/04/30 03:59:32;;;;;;;11.17;8.07;;;;;;;6.76;78.05;101319.38;5101066;28;20443;-68
2022/04/30 04:01:59;;;;;;;12.60;8.30;;;;;;;6.82;77.93;101320.81;5099567;28;20500;-68
2022/04/30 04:04:26;;;;;;;12.90;8.80;;;;;;;6.59;78.54;101317.69;5100089;28;20451;-68
2022/04/30 04:06:53;;;;;;;9.20;8.00;;;;;;;6.81;78.34;101319.13;5101769;28;20510;-68
2022/04/30 04:09:21;;;;;;;11.27;8.93;;;;;;;6.57;78.27;101315.13;5105243;28;20507;-68
2022/04/30 04:11:48;;;;;;;15.63;9.43;;;;;;;6.71;79.02;101316.13;5104080;28;20486;-70
2022/04/30 04:19:43;;;;;;;24.03;9.07;;;;;;;6.79;78.82;101317.41;5105195;28;20433;-70
2022/04/30 04:22:10;;;;;;;15.17;8.83;;;;;;;6.86;78.27;101319.72;5103895;28;20471;-68
2022/04/30 04:27:22;;;;;;;14.83;9.07;;;;;;;6.85;78.52;101328.63;5104088;28;20505;-68
2022/04/30 04:29:50;;;;;;;17.07;9.90;;;;;;;6.92;78.20;101330.81;5104500;28;20455;-67
2022/04/30 04:32:16;;;;;;;20.70;9.00;;;;;;;6.98;78.09;101326.97;5103145;28;20486;-68
2022/04/30 04:34:43;;;;;;;14.40;8.60;;;;;;;7.00;78.20;101329.53;5104498;28;20474;-68
2022/04/30 04:37:10;;;;;;;13.70;8.23;;;;;;;7.11;77.85;101330.56;5103739;28;20479;-68
2022/04/30 04:39:38;;;;;;;13.90;9.30;;;;;;;7.09;77.71;101332.47;5111435;28;20438;-69
2022/04/30 04:42:06;;;;;;;16.33;9.50;;;;;;;7.26;77.26;101328.81;5124977;28;20572;-68
2022/04/30 04:44:33;;;;;;;17.00;8.90;;;;;;;7.29;77.10;101328.63;5110301;28;20463;-68
2022/04/30 04:47:00;;;;;;;14.20;9.23;;;;;;;7.40;76.69;101335.97;5102319;28;20491;-68
2022/04/30 04:49:27;;;;;;;14.10;9.37;;;;;;;7.28;77.20;101339.38;5104017;28;20470;-69
2022/04/30 04:51:54;;;;;;;12.57;9.00;;;;;;;7.23;77.17;101336.97;5103563;28;20499;-69
2022/04/30 04:54:22;;;;;;;13.63;8.10;;;;;;;7.27;76.88;101338.50;5103823;28;20451;-68
2022/04/30 04:56:50;;;;;;;15.53;8.97;;;;;;;7.34;76.87;101342.53;5102674;28;20919;-67
2022/04/30 04:59:17;;;;;;;10.20;8.40;;;;;;;7.43;76.65;101335.78;5092610;28;20454;-68
2022/04/30 05:01:44;;;;;;;12.73;8.80;;;;;;;6.95;77.71;101335.09;5102089;28;20502;-67
2022/04/30 05:04:10;;;;;;;13.57;8.80;;;;;;;7.17;77.58;101337.34;5104436;28;20451;-67
2022/04/30 05:06:37;;;;;;;14.93;8.80;;;;;;;7.26;77.72;101331.47;5103437;28;20499;-66
2022/04/30 05:09:04;;;;;;;14.00;9.97;;;;;;;7.47;77.03;101334.63;5103578;28;20474;-67
2022/04/30 05:11:31;;;;;;;10.80;9.20;;;;;;;7.43;76.96;101337.56;5103099;28;20483;-67
2022/04/30 05:13:59;;;;;;;13.80;9.37;;;;;;;7.14;77.76;101330.41;5104200;28;21337;-70
2022/04/30 05:16:25;;;;;;;12.63;8.80;;;;;;;7.36;76.98;101339.78;5107282;28;20481;-69
2022/04/30 05:18:52;;;;;;;14.33;9.53;;;;;;;7.44;76.49;101340.13;5123449;28;20426;-69
2022/04/30 05:21:19;;;;;;;14.67;9.57;;;;;;;7.75;75.84;101346.25;5123612;28;20474;-68
2022/04/30 05:23:46;;;;;;;14.43;8.67;;;;;;;7.78;75.22;101342.50;5124196;28;20572;-70
2022/04/30 05:26:13;;;;;;;15.33;9.00;;;;;;;7.80;74.84;101348.63;5123856;28;20574;-70
2022/04/30 05:28:39;;;;;;;14.93;9.33;;;;;;;8.07;74.57;101349.56;5118494;28;20450;-69
2022/04/30 05:31:08;;;;;;;10.03;7.27;;;;;;;8.12;74.11;101349.25;5102729;28;20496;-70
2022/04/30 05:33:35;;;;;;;10.83;8.90;;;;;;;8.04;74.35;101351.56;5102959;28;20977;-71
2022/04/30 05:36:02;;;;;;;14.10;8.53;;;;;;;7.68;74.74;101359.06;5103112;28;20853;-72
2022/04/30 05:38:29;;;;;;;16.37;8.60;;;;;;;7.95;74.76;101352.13;5103071;28;20449;-71
2022/04/30 05:40:56;;;;;;;10.43;7.53;;;;;;;7.86;74.43;101349.09;5103067;28;20500;-71
2022/04/30 05:43:22;;;;;;;13.57;7.60;;;;;;;7.97;74.83;101359.06;5102147;28;20869;-71
2022/04/30 05:45:49;;;;;;;10.43;9.00;;;;;;;7.73;75.69;101356.13;5101867;28;20524;-72
2022/04/30 05:48:18;;;;;;;10.40;7.50;;;;;;;8.16;74.49;101353.44;5102009;28;20443;-70
2022/04/30 05:50:44;;;;;;;12.57;8.57;;;;;;;7.60;75.58;101345.38;5102051;28;20541;-75
2022/04/30 05:53:11;;;;;;;14.20;8.90;;;;;;;7.50;75.76;101357.56;5102752;28;20446;-71
2022/04/30 05:55:39;;;;;;;12.77;7.20;;;;;;;7.25;77.03;101355.50;5100433;28;20517;-70
2022/04/30 05:58:06;;;;;;;14.10;8.50;;;;;;;7.45;77.25;101356.97;5103473;28;20439;-72
2022/04/30 06:00:33;;;;;;;14.83;8.60;;;;;;;8.12;75.79;101362.56;5104018;28;20462;-70
2022/04/30 06:03:00;;;;;;;12.30;9.33;;;;;;;8.42;74.45;101358.88;5102250;28;20457;-69
2022/04/30 06:05:28;;;;;;;12.23;8.70;;;;;;;8.46;73.29;101350.63;5102083;28;20487;-70
2022/04/30 06:07:55;;;;;;;14.27;8.60;;;;;;;8.47;73.88;101352.34;5102965;28;20932;-73
2022/04/30 06:10:33;;;;;;;13.23;8.00;;;;;;;8.58;73.25;101358.78;5102151;28;20443;-71
2022/04/30 06:13:00;;;;;;;12.40;8.77;;;;;;;8.40;73.74;101356.34;5100575;28;20978;-74
2022/04/30 06:15:28;;;;;;;12.73;8.00;;;;;;;8.72;73.28;101352.56;5100849;28;20494;-69
2022/04/30 06:17:54;;;;;;;22.37;8.27;;;;;;;8.75;71.78;101352.31;5101563;28;20457;-70
2022/04/30 06:20:21;;;;;;;12.27;8.27;;;;;;;8.98;71.62;101353.47;5119402;28;20438;-74
2022/04/30 06:22:50;;;;;;;11.40;8.43;;;;;;;9.51;70.38;101356.97;5100789;28;20455;-66
2022/04/30 06:25:17;;;;;;;14.57;7.90;;;;;;;9.66;69.69;101360.38;5093541;28;20493;-66
2022/04/30 06:27:43;;;;;;;12.90;8.60;;;;;;;8.28;72.45;101352.66;5100815;28;20466;-66
2022/04/30 06:30:11;;;;;;;11.43;8.00;;;;;;;9.39;70.56;101356.00;5099687;28;20435;-64
2022/04/30 06:32:38;;;;;;;9.30;7.30;;;;;;;9.33;70.27;101350.22;5100378;28;20520;-64
2022/04/30 06:35:05;;;;;;;13.20;7.10;;;;;;;9.31;70.32;101352.16;5100158;28;20451;-67
2022/04/30 06:37:32;;;;;;;11.80;7.67;;;;;;;9.46;69.60;101358.22;5106449;28;20442;-69
2022/04/30 06:40:00;;;;;;;12.33;7.20;;;;;;;9.67;70.24;101364.75;5121686;28;20460;-63
2022/04/30 06:42:37;;;;;;;9.60;7.83;;;;;;;9.80;68.97;101354.06;5121223;28;20498;-63
2022/04/30 06:45:05;;;;;;;11.20;6.60;;;;;;;10.57;66.75;101364.56;5119361;28;20449;-63
2022/04/30 06:47:31;;;;;;;11.97;9.07;;;;;;;10.52;65.18;101356.06;5099991;28;20494;-63
2022/04/30 06:49:58;;;;;;;8.60;7.20;;;;;;;11.42;65.00;101355.53;5101786;28;20442;-65
2022/04/30 06:52:25;;;;;;;9.63;7.23;;;;;;;11.42;62.79;101356.41;5100708;28;20540;-65
2022/04/30 06:57:37;;;;;;;16.70;8.00;;;;;;;10.61;66.09;101355.38;5092787;28;20534;-65
2022/04/30 07:01:24;;;;;;;14.07;8.50;;;;;;;10.31;65.99;101354.00;5079530;28;20504;-65
2022/04/30 07:02:55;;;;;;;12.83;7.67;;;;;;;9.74;68.19;101355.34;5077796;28;20495;-65
2022/04/30 07:05:22;;;;;;;15.10;8.40;;;;;;;10.38;66.02;101351.72;5080154;28;20991;-65
2022/04/30 07:07:49;;;;;;;11.83;9.30;;;;;;;9.22;70.35;101350.97;5099940;28;20437;-65
2022/04/30 07:10:15;;;;;;;11.00;8.50;;;;;;;9.35;71.18;101350.97;5098188;28;20454;-64
2022/04/30 07:12:43;;;;;;;11.80;8.67;;;;;;;9.79;69.05;101350.53;5101734;28;20534;-70
2022/04/30 07:15:11;;;;;;;15.53;8.30;;;;;;;10.15;67.25;101356.03;5118928;28;20442;-65
2022/04/30 07:17:39;;;;;;;15.80;9.07;;;;;;;9.69;67.58;101352.16;5098996;28;20458;-66
2022/04/30 07:20:07;;;;;;;14.63;8.93;;;;;;;9.08;70.43;101356.34;5099561;28;20463;-66
2022/04/30 07:22:34;;;;;;;17.63;8.97;;;;;;;9.69;69.28;101357.50;5098871;28;20854;-70
2022/04/30 07:25:01;;;;;;;10.80;8.03;;;;;;;9.96;67.40;101356.47;5097863;28;20955;-65
2022/04/30 07:27:27;;;;;;;15.60;9.10;;;;;;;10.08;66.09;101352.94;5100803;28;20493;-67
2022/04/30 07:29:55;;;;;;;11.93;8.50;;;;;;;10.10;66.28;101356.38;5099964;28;20443;-67
2022/04/30 07:32:22;;;;;;;14.53;8.90;;;;;;;10.65;64.08;101351.50;5098103;28;20501;-67
2022/04/30 07:34:49;;;;;;;13.03;8.53;;;;;;;11.30;62.96;101363.53;5098894;28;20451;-65
2022/04/30 07:37:16;;;;;;;9.97;7.93;;;;;;;11.60;61.25;101353.25;5098129;28;20506;-67
2022/04/30 07:39:43;;;;;;;11.00;7.90;;;;;;;10.98;61.70;101355.28;5098443;28;20448;-66
2022/04/30 07:42:10;;;;;;;11.73;7.83;;;;;;;11.84;60.39;101359.34;5101188;28;20471;-67
2022/04/30 07:44:37;;;;;;;13.87;7.53;;;;;;;11.99;59.36;101354.63;5102574;28;20912;-66
2022/04/30 07:47:06;;;;;;;10.80;8.53;;;;;;;11.65;60.60;101351.91;5101282;28;21030;-66
2022/04/30 07:49:32;;;;;;;9.57;8.57;;;;;;;11.58;59.67;101349.81;5105937;28;20460;-66
2022/04/30 07:51:59;;;;;;;11.57;8.70;;;;;;;11.34;59.94;101360.63;5098148;28;20483;-66
2022/04/30 07:54:26;;;;;;;12.00;8.70;;;;;;;11.35;60.38;101351.63;5117118;28;20474;-67
2022/04/30 07:56:54;;;;;;;11.87;8.17;;;;;;;11.74;59.27;101353.00;5124492;28;20462;-65
2022/04/30 07:59:21;;;;;;;11.40;8.27;;;;;;;12.20;56.61;101370.81;5110341;28;20547;-66
2022/04/30 08:01:48;;;;;;;10.60;7.60;;;;;;;11.56;59.49;101362.47;5103295;28;20481;-67
2022/04/30 08:04:16;;;;;;;10.50;8.27;;;;;;;11.91;59.14;101357.06;5085451;28;20462;-68
2022/04/30 08:06:42;;;;;;;10.17;7.80;;;;;;;12.62;57.29;101359.41;5099565;28;20991;-68
2022/04/30 08:09:09;;;;;;;10.00;7.60;;;;;;;12.65;55.75;101355.59;5095142;28;20435;-66
2022/04/30 08:11:36;;;;;;;8.40;7.50;;;;;;;12.82;55.28;101355.06;5120512;28;20998;-64
2022/04/30 08:14:03;;;;;;;11.80;7.77;;;;;;;12.75;55.16;101356.53;5109448;28;20540;-70
2022/04/30 08:16:29;;;;;;;10.73;8.40;;;;;;;12.26;57.27;101358.75;5097721;28;20467;-65
2022/04/30 08:18:57;;;;;;;10.87;8.47;;;;;;;11.61;58.49;101353.13;5099824;28;20462;-66
2022/04/30 08:21:26;;;;;;;6.93;6.00;;;;;;;12.10;56.86;101353.78;5101774;28;20562;-67
2022/04/30 08:23:52;;;;;;;8.60;5.67;;;;;;;11.97;55.64;101348.53;5101163;28;20447;-66
2022/04/30 08:26:19;;;;;;;13.03;5.70;;;;;;;11.49;56.22;101351.38;5100439;28;20479;-65
2022/04/30 08:28:46;;;;;;;8.53;5.30;;;;;;;11.28;57.39;101357.47;5102303;28;20447;-67
2022/04/30 08:31:12;;;;;;;7.20;5.00;;;;;;;11.76;56.65;101352.91;5100699;28;20467;-64
2022/04/30 08:33:39;;;;;;;5.93;4.80;;;;;;;13.20;53.16;101350.97;5102448;28;20482;-64
2022/04/30 08:36:06;;;;;;;7.63;5.13;;;;;;;13.58;50.59;101348.69;5102096;28;20478;-64
2022/04/30 08:38:34;;;;;;;8.00;5.07;;;;;;;16.70;43.99;101351.09;5102130;28;20428;-64
2022/04/30 08:41:01;;;;;;;8.10;5.13;;;;;;;18.71;38.94;101341.97;5097654;28;20827;-65
2022/04/30 08:43:29;;;;;;;6.03;4.10;;;;;;;18.89;37.85;101348.13;5101138;28;20462;-65
2022/04/30 08:45:56;;;;;;;8.13;4.33;;;;;;;19.53;35.80;101350.97;5099591;28;20493;-65
2022/04/30 08:48:25;;;;;;;4.40;4.00;;;;;;;19.74;35.73;101341.47;5092138;28;20482;-65
2022/04/30 08:50:51;;;;;;;5.23;4.00;;;;;;;18.44;37.85;101349.38;5100578;28;20478;-65
2022/04/30 08:53:18;;;;;;;5.43;3.67;;;;;;;19.45;34.84;101345.56;5099992;28;20431;-63
2022/04/30 08:55:46;;;;;;;4.10;3.60;;;;;;;18.94;36.64;101347.63;5102283;28;20471;-65
2022/04/30 08:58:15;;;;;;;5.13;4.50;;;;;;;20.14;34.38;101345.03;5103308;28;20446;-67
2022/04/30 09:00:42;;;;;;;5.33;3.90;;;;;;;18.55;36.55;101334.69;5086497;28;20593;-65
2022/04/30 09:03:09;;;;;;;8.37;4.50;;;;;;;20.83;33.57;101345.16;5081525;28;20452;-65
2022/04/30 09:05:37;;;;;;;6.03;4.30;;;;;;;21.73;32.62;101337.22;5099953;28;20466;-65
2022/04/30 09:08:05;;;;;;;6.73;4.20;;;;;;;19.86;34.54;101347.34;5102077;28;20499;-65
2022/04/30 09:10:33;;;;;;;4.20;3.73;;;;;;;20.58;33.05;101333.59;5102196;28;20466;-65
2022/04/30 09:13:09;;;;;;;7.83;4.07;;;;;;;21.05;32.96;101331.72;5102394;28;20597;-64
2022/04/30 09:15:37;;;;;;;8.10;4.13;;;;;;;20.87;33.11;101337.50;5100335;28;20846;-65
2022/04/30 09:18:06;;;;;;;5.47;4.87;;;;;;;18.93;34.38;101335.94;5101786;28;20989;-65
2022/04/30 09:20:42;;;;;;;5.30;4.53;;;;;;;16.66;40.52;101334.34;5101033;28;20471;-65
2022/04/30 09:23:09;;;;;;;5.23;4.73;;;;;;;16.82;39.97;101331.00;5101059;28;20502;-64
2022/04/30 09:25:35;;;;;;;7.27;5.30;;;;;;;16.00;41.61;101330.09;5100746;28;20531;-66
2022/04/30 09:28:03;;;;;;;8.20;4.77;;;;;;;16.27;38.76;101333.81;5101848;28;20481;-65
2022/04/30 09:30:32;;;;;;;5.60;5.10;;;;;;;16.90;39.67;101339.16;5100558;28;20485;-65
2022/04/30 09:33:00;;;;;;;9.47;4.83;;;;;;;16.86;39.84;101334.25;5101919;28;20939;-65
2022/04/30 09:38:12;;;;;;;8.13;5.10;;;;;;;14.70;45.73;101336.00;5101474;28;20496;-66
2022/04/30 09:40:39;;;;;;;7.20;5.30;;;;;;;14.95;44.00;101323.84;5101013;28;20492;-66
2022/04/30 09:43:15;;;;;;;6.50;4.60;;;;;;;15.20;43.54;101332.31;5101254;28;20419;-65
2022/04/30 09:45:43;;;;;;;7.10;4.80;;;;;;;15.36;43.82;101324.50;5099994;28;20478;-65
2022/04/30 09:56:29;;;;;;;7.30;5.97;;;;;;;13.28;50.16;101312.69;5100750;28;21002;-65
2022/04/30 09:58:57;;;;;;;6.20;5.40;;;;;;;13.37;49.03;101311.97;5108333;28;20434;-65
2022/04/30 10:01:27;;;;;;;8.13;5.93;;;;;;;12.72;49.94;101319.22;5119601;28;20470;-66
2022/04/30 10:03:54;;;;;;;12.03;5.60;;;;;;;13.84;49.56;101311.47;5110931;28;20825;-65
2022/04/30 10:06:21;;;;;;;10.67;6.17;;;;;;;14.02;49.05;101308.97;5100406;28;20538;-65
2022/04/30 10:08:48;;;;;;;7.83;6.43;;;;;;;14.07;49.56;101309.41;5100713;28;20439;-65
2022/04/30 10:11:19;;;;;;;7.83;6.50;;;;;;;13.74;50.70;101311.44;5100300;28;20570;-65
2022/04/30 10:14:00;;;;;;;9.50;6.33;;;;;;;13.78;50.39;101301.25;5100352;28;20487;-65
2022/04/30 10:16:29;;;;;;;7.20;6.47;;;;;;;13.76;50.97;101306.75;5099531;28;20520;-65
2022/04/30 10:19:06;;;;;;;9.20;5.83;;;;;;;14.27;50.53;101308.47;5099708;28;20462;-66
2022/04/30 10:21:33;;;;;;;9.77;6.30;;;;;;;14.49;48.73;101303.81;5099577;28;20480;-65
2022/04/30 10:24:03;;;;;;;9.43;5.80;;;;;;;14.94;47.42;101305.13;5100022;28;20446;-65
2022/04/30 10:26:30;;;;;;;7.97;5.60;;;;;;;13.63;50.81;101301.63;5100107;28;20482;-65
2022/04/30 10:29:01;;;;;;;8.60;6.10;;;;;;;14.19;49.61;101304.78;5100029;28;20451;-65
2022/04/30 10:31:29;;;;;;;8.83;5.60;;;;;;;14.67;48.34;101298.63;5099989;28;20527;-64
2022/04/30 10:33:56;;;;;;;11.83;5.80;;;;;;;14.91;47.13;101303.56;5100520;28;20455;-65
2022/04/30 10:36:23;;;;;;;6.57;4.87;;;;;;;14.82;48.09;101307.13;5099148;28;20499;-64
2022/04/30 10:38:59;;;;;;;8.63;4.97;;;;;;;14.47;47.28;101305.81;5100535;28;20478;-65
2022/04/30 10:41:26;;;;;;;8.03;5.63;;;;;;;13.83;50.11;101299.00;5099872;28;20561;-64
2022/04/30 10:44:00;;;;;;;8.60;5.87;;;;;;;15.33;47.09;101300.53;5099114;28;20451;-66
2022/04/30 10:46:27;;;;;;;11.07;5.73;;;;;;;15.85;45.34;101293.81;5098983;28;20490;-66
2022/04/30 10:48:55;;;;;;;10.30;5.37;;;;;;;15.98;44.39;101297.03;5100217;28;20456;-65
2022/04/30 10:51:34;;;;;;;9.47;5.60;;;;;;;16.13;44.93;101286.59;5099063;28;20471;-65
2022/04/30 10:54:02;;;;;;;7.77;5.30;;;;;;;14.65;46.78;101288.00;5100478;28;20446;-66
2022/04/30 10:56:29;;;;;;;7.50;5.77;;;;;;;16.70;43.70;101283.59;5099992;28;20479;-64
2022/04/30 10:58:55;;;;;;;7.43;5.73;;;;;;;17.21;41.15;101282.00;5106264;28;20438;-64
2022/04/30 11:01:22;;;;;;;6.33;5.30;;;;;;;15.58;45.11;101282.84;5119304;28;20916;-64
2022/04/30 11:03:50;;;;;;;9.20;5.40;;;;;;;15.05;45.34;101273.50;5112054;28;20455;-64
2022/04/30 11:06:20;;;;;;;8.50;5.67;;;;;;;15.10;46.39;101274.91;5098728;28;20474;-66
2022/04/30 11:08:57;;;;;;;13.40;5.53;;;;;;;14.86;46.21;101276.25;5099886;28;20432;-64
2022/04/30 11:11:23;;;;;;;7.73;5.30;;;;;;;14.77;46.56;101283.34;5099584;28;20477;-64
2022/04/30 11:13:56;;;;;;;8.60;5.10;;;;;;;15.18;45.68;101269.66;5098914;28;20497;-64
2022/04/30 11:16:29;;;;;;;7.97;5.60;;;;;;;16.33;44.12;101265.72;5098307;28;20500;-65
2022/04/30 11:19:06;;;;;;;6.00;4.80;;;;;;;18.67;39.59;101268.34;5099882;28;20435;-65
2022/04/30 11:21:36;;;;;;;6.90;5.50;;;;;;;17.71;39.61;101258.78;5098926;28;20474;-64
2022/04/30 11:24:03;;;;;;;7.73;5.33;;;;;;;17.14;40.84;101259.34;5099176;28;20455;-64
2022/04/30 11:26:31;;;;;;;6.57;4.70;;;;;;;17.08;40.76;101257.25;5099429;28;20518;-65
2022/04/30 11:28:58;;;;;;;6.90;5.00;;;;;;;14.98;43.37;101252.69;5099051;28;20427;-66
2022/04/30 11:31:24;;;;;;;9.03;5.93;;;;;;;14.65;45.27;101249.47;5098942;28;20475;-64
2022/04/30 11:33:51;;;;;;;7.20;5.63;;;;;;;15.67;43.35;101239.81;5100070;28;20454;-64
2022/04/30 11:36:18;;;;;;;13.10;6.10;;;;;;;15.90;43.68;101243.00;5098322;28;20479;-64
2022/04/30 11:38:53;;;;;;;8.20;5.00;;;;;;;17.18;40.22;101244.47;5100166;28;20431;-64
2022/04/30 11:41:20;;;;;;;5.97;5.37;;;;;;;16.24;42.96;101245.06;5099162;28;20523;-64
2022/04/30 11:43:58;;;;;;;5.97;5.20;;;;;;;14.15;46.08;101250.41;5098632;28;20438;-64
2022/04/30 11:46:25;;;;;;;6.37;5.20;;;;;;;14.45;46.69;101240.53;5098306;28;20581;-64
2022/04/30 11:48:52;;;;;;;7.00;5.97;;;;;;;15.39;45.01;101242.50;5098596;28;20991;-64
2022/04/30 11:51:19;;;;;;;7.97;5.40;;;;;;;15.58;44.36;101245.09;5098533;28;20467;-64
2022/04/30 11:53:46;;;;;;;8.10;6.23;;;;;;;15.99;43.91;101245.63;5099736;28;20443;-64
2022/04/30 11:56:14;;;;;;;10.93;5.80;;;;;;;16.51;43.07;101236.88;5099099;28;20502;-64
2022/04/30 11:58:42;;;;;;;6.33;5.17;;;;;;;17.58;39.69;101229.47;5103337;28;21107;-64
2022/04/30 12:01:22;;;;;;;6.60;4.90;;;;;;;16.10;42.51;101239.19;5119447;28;20469;-64
2022/04/30 12:03:57;;;;;;;7.87;5.30;;;;;;;16.12;41.88;101230.94;5116144;28;20950;-64